DW4779 Weather Reports


Display with metric or nautical units.
time (UTC)temp
F
wind
direction
speed
MPH
gust
MPH
rain 1hr
in
rain 24hr
in
rain mn
in
humidity
%
barometer
mb
20211127114616 28 0 0.0 0.0 0.00 0.00 0.00 84 1020.3
20211127113054 29 0 0.0 0.0 0.00 0.00 0.00 85 1020.3
20211127111617 29 0 0.0 1.0 0.00 0.00 0.00 85 1020.1
20211127110114 29 0 0.0 0.0 0.00 0.00 0.00 84 1020.1
20211127104635 29 224 0.0 1.0 0.00 0.00 0.00 85 1019.8
20211127103130 29 0 0.0 0.0 0.00 0.00 0.00 85 1019.6
20211127101610 29 0 0.0 0.0 0.00 0.00 0.00 86 1019.6
20211127100117 28 0 0.0 0.0 0.00 0.00 0.00 86 1019.5
20211127094614 28 0 0.0 4.0 0.00 0.00 0.00 84 1019.3
20211127093221 29 190 1.0 2.0 0.00 0.00 0.00 83 1019.2
20211127091643 30 0 0.0 0.0 0.00 0.00 0.00 82 1018.7
20211127090116 31 0 0.0 1.0 0.00 0.00 0.00 82 1018.2
20211127084614 31 0 0.0 0.0 0.00 0.00 0.00 83 1018.0
20211127083152 31 190 1.0 3.0 0.00 0.00 0.00 80 1018.0
20211127081547 32 190 0.0 2.0 0.00 0.00 0.00 82 1017.7
20211127080111 32 190 2.0 3.0 0.00 0.00 0.00 82 1017.5
20211127074610 31 190 1.0 2.0 0.00 0.00 0.00 83 1017.6
20211127073047 31 0 0.0 0.0 0.00 0.00 0.00 83 1017.7
20211127071648 31 0 0.0 0.0 0.00 0.00 0.00 82 1017.5
20211127070050 32 0 0.0 1.0 0.00 0.00 0.00 81 1017.3
20211127064630 32 190 0.0 0.0 0.00 0.00 0.00 84 1017.2
20211127063143 31 0 0.0 1.0 0.00 0.00 0.00 84 1017.0
20211127061650 31 0 0.0 0.0 0.00 0.00 0.00 83 1016.8
20211127060125 32 0 0.0 1.0 0.00 0.00 0.00 82 1016.4
20211127054556 32 190 1.0 3.0 0.00 0.00 0.00 83 1016.2
20211127053115 31 190 2.0 3.0 0.00 0.00 0.00 83 1015.9
20211127051551 32 190 1.0 3.0 0.00 0.00 0.00 81 1015.7
20211127050129 33 190 2.0 4.0 0.00 0.00 0.00 81 1015.4
20211127044652 33 190 2.0 4.0 0.00 0.00 0.00 81 1015.2
20211127043245 33 190 0.0 1.0 0.00 0.00 0.00 80 1015.0
20211127041557 34 0 0.0 1.0 0.00 0.00 0.00 78 1014.7
20211127040100 35 190 0.0 1.0 0.00 0.00 0.00 78 1014.5
20211127034654 35 0 0.0 1.0 0.00 0.00 0.00 76 1014.2
20211127033115 37 190 0.0 1.0 0.00 0.00 0.00 74 1014.1
20211127031620 38 0 0.0 1.0 0.00 0.00 0.00 72 1014.1
20211127030111 39 190 0.0 3.0 0.00 0.00 0.00 69 1013.6
20211127024629 40 190 2.0 3.0 0.00 0.00 0.00 68 1013.4
20211127023212 40 190 2.0 4.0 0.00 0.00 0.00 66 1013.2
20211127021613 41 190 3.0 4.0 0.00 0.00 0.00 65 1013.1
20211127020116 43 224 2.0 5.0 0.00 0.00 0.00 62 1012.8
20211127014601 44 190 3.0 7.0 0.00 0.00 0.00 61 1012.6
20211127013057 44 224 4.0 7.0 0.00 0.00 0.00 60 1012.3
20211127011631 43 190 3.0 5.0 0.00 0.00 0.00 61 1012.3
20211127010210 45 190 4.0 7.0 0.00 0.00 0.00 58 1012.1
20211127004607 45 190 4.0 7.0 0.00 0.00 0.00 57 1012.1
20211127003054 46 190 4.0 7.0 0.00 0.00 0.00 56 1012.3
20211127001623 46 190 5.0 8.0 0.00 0.00 0.00 54 1012.0
20211127000103 46 190 3.0 6.0 0.00 0.00 0.00 54 1011.9
20211126234553 48 190 4.0 7.0 0.00 0.00 0.00 51 1011.5
20211126233054 48 190 5.0 9.0 0.00 0.00 0.00 50 1011.2
20211126231701 49 190 4.0 11.0 0.00 0.00 0.00 49 1011.5
20211126230149 50 190 5.0 10.0 0.00 0.00 0.00 48 1011.2
20211126224629 51 190 5.0 8.0 0.00 0.00 0.00 46 1011.0
20211126223256 51 190 8.0 15.0 0.00 0.00 0.00 46 1011.3
20211126221553 51 190 8.0 13.0 0.00 0.00 0.00 44 1011.0
20211126220108 52 190 10.0 16.0 0.00 0.00 0.00 43 1011.1
20211126214625 53 190 7.0 13.0 0.00 0.00 0.00 44 1010.9
20211126213134 53 190 10.0 19.0 0.00 0.00 0.00 43 1010.4
20211126211542 53 190 10.0 16.0 0.00 0.00 0.00 42 1010.0
20211126210117 52 190 5.0 10.0 0.00 0.00 0.00 46 1009.6
20211126204611 52 190 6.0 9.0 0.00 0.02 0.00 47 1009.8
20211126203110 52 190 6.0 9.0 0.00 0.02 0.00 47 1009.9
20211126201619 52 190 6.0 11.0 0.00 0.02 0.00 47 1010.2
20211126200139 52 190 5.0 10.0 0.00 0.02 0.00 49 1010.5
20211126194722 51 190 2.0 4.0 0.00 0.07 0.00 53 1010.7
20211126193046 50 190 2.0 3.0 0.00 0.07 0.00 53 1010.7
20211126191626 49 190 1.0 3.0 0.00 0.07 0.00 54 1010.6
20211126190211 49 190 2.0 4.0 0.00 0.07 0.00 53 1010.9
20211126184705 48 190 0.0 0.0 0.00 0.13 0.00 56 1011.3
20211126183131 47 190 0.0 1.0 0.00 0.13 0.00 57 1011.4
20211126181616 47 190 0.0 4.0 0.00 0.13 0.00 58 1011.3
20211126180135 47 190 2.0 4.0 0.00 0.13 0.00 58 1011.0
20211126174602 47 190 1.0 3.0 0.00 0.15 0.00 58 1010.8
20211126173054 46 190 1.0 3.0 0.00 0.15 0.00 58 1010.7
20211126171550 46 224 0.0 2.0 0.00 0.15 0.00 60 1010.8
20211126170144 45 190 1.0 2.0 0.00 0.15 0.00 61 1010.9
20211126164609 44 190 0.0 1.0 0.00 0.15 0.00 62 1011.0
20211126163102 44 224 2.0 3.0 0.00 0.15 0.00 60 1010.9
20211126161640 45 190 2.0 7.0 0.00 0.15 0.00 57 1010.7
20211126160130 45 217 3.0 7.0 0.00 0.15 0.00 57 1010.7
20211126154615 39 224 1.0 1.0 0.00 0.15 0.00 68 1010.8
20211126153201 36 0 0.0 1.0 0.00 0.15 0.00 77 1011.0
20211126151630 34 224 1.0 2.0 0.00 0.15 0.00 79 1010.8
20211126150121 33 0 0.0 2.0 0.00 0.15 0.00 78 1010.9
20211126144727 34 0 0.0 2.0 0.00 0.15 0.00 77 1010.7
20211126143146 35 0 0.0 0.0 0.00 0.15 0.00 78 1010.7
20211126141638 35 0 0.0 5.0 0.00 0.15 0.00 77 1010.6
20211126140152 37 0 0.0 1.0 0.00 0.15 0.00 73 1010.9
20211126134629 36 0 0.0 0.0 0.00 0.15 0.00 77 1010.9
20211126133125 36 0 0.0 0.0 0.00 0.15 0.00 74 1011.1
20211126131642 36 0 0.0 0.0 0.00 0.15 0.00 74 1010.7
20211126130152 36 190 1.0 3.0 0.00 0.15 0.00 73 1010.8
20211126124936 37 44 2.0 4.0 0.00 0.15 0.00 68 1010.4
20211126123153 40 0 0.0 1.0 0.00 0.15 0.00 64 1010.1
20211126121733 41 190 1.0 2.0 0.00 0.15 0.00 62 1010.7
20211126120211 41 190 2.0 3.0 0.00 0.15 0.00 62 1010.7